Terminal Aerodrome Forecast
Issued by NWS

Home | Current Version | Previous Version | Text Only | Print | Product List | Glossary On
Versions: 1 2 3 4 5 6 7 8 9 10 11 12 13 14 15 16 17 18
000
FTUS43 KEAX 201721
TAFSTJ
TAF
KSTJ 201721Z 2018/2118 23014KT P6SM BKN015
     FM210100 26011KT P6SM BKN050
     FM211000 29010KT P6SM FEW250=

USA.gov is the U.S. government's official web portal to all federal, state and local government web resources and services.